Hovedside
METAR-TAF:

METAR-TAF

Lufthavner :

Ålesund lufthavn. Vigra

Ålesund, Norge

breddegrad: 62-34N, lengdegrad: 006-07E, høyde over havet: 2 m

Gjeldene værobservasjon

Denne rapporten ble laget for 34 minutter siden, klokken 11:50 UTC
Vind 14 kt fra Øst-nordøst
Temperatur 13°C
Luftfuktighet 82%
Trykk 1010 hPa
Sikt 10 km eller mer
Få skyer i en høyde av 1500 ft
Spredte skyer i en høyde av 5500 ft

METAR: ENAL 301150Z 06014KT 9999 FEW015 SCT055 13/10 Q1010

Tid: 14:24 (12:24 UTC)

Varsel

Denne rapporten ble laget for 1 time og 24 minutter siden, klokken 11:00 UTC
Varsel gyldig fra 30. klokken 12 UTC til 30. klokken 21 UTC
Vind 12 kt fra Nordøst
Sikt 10 km eller mer
Få skyer i en høyde av 1500 ft
Brutte skyer i en høyde av 8000 ft

TAF: ENAL 301100Z 3012/3021 05012KT 9999 FEW015 BKN080

Værobservasjoner og værvarsel for over 4000 flyplasser (METAR- og TAF-rapporter).

Tilgjengelige stasjoner er representert av de røde og gule prikkene på kartet.

Hold musepekeren over prikken for å se navnet på stasjonen.

Klikk så for å se værobservasjoner og -varsler.

For å forandre kartet kan du klikke på den grønne knappen med svart kryss for å zoome inn, på den grønne knappen med strek for å zoome ut, eller på de grønne pilene for å se tilstøtende kart.


METAR-TAF: